sensor_id;sensor_type;location;lat;lon;timestamp;pressure;altitude;pressure_sealevel;temperature;humidity
23339;BME280;11841;49.368;20.962;2023-08-21T00:02:25;96381.69;;;19.50;87.60
23339;BME280;11841;49.368;20.962;2023-08-21T00:05:13;96384.63;;;19.49;87.60
23339;BME280;11841;49.368;20.962;2023-08-21T00:07:58;96384.06;;;19.47;87.74
23339;BME280;11841;49.368;20.962;2023-08-21T00:10:44;96395.34;;;19.44;87.88
23339;BME280;11841;49.368;20.962;2023-08-21T00:13:29;96384.28;;;19.40;88.03
23339;BME280;11841;49.368;20.962;2023-08-21T00:16:16;96387.50;;;19.37;88.17
23339;BME280;11841;49.368;20.962;2023-08-21T00:19:02;96384.81;;;19.37;88.40
23339;BME280;11841;49.368;20.962;2023-08-21T00:21:47;96384.00;;;19.37;88.39
23339;BME280;11841;49.368;20.962;2023-08-21T00:24:32;96386.13;;;19.35;88.54
23339;BME280;11841;49.368;20.962;2023-08-21T00:27:18;96383.94;;;19.32;88.90
23339;BME280;11841;49.368;20.962;2023-08-21T00:30:03;96383.38;;;19.30;88.89
23339;BME280;11841;49.368;20.962;2023-08-21T00:32:49;96384.44;;;19.28;89.32
23339;BME280;11841;49.368;20.962;2023-08-21T00:35:34;96381.19;;;19.26;89.19
23339;BME280;11841;49.368;20.962;2023-08-21T00:38:19;96389.50;;;19.25;89.39
23339;BME280;11841;49.368;20.962;2023-08-21T00:41:05;96386.56;;;19.26;89.96
23339;BME280;11841;49.368;20.962;2023-08-21T00:43:50;96388.19;;;19.27;89.87
23339;BME280;11841;49.368;20.962;2023-08-21T00:46:36;96388.50;;;19.31;90.04
23339;BME280;11841;49.368;20.962;2023-08-21T00:49:22;96390.41;;;19.31;90.10
23339;BME280;11841;49.368;20.962;2023-08-21T00:52:11;96389.81;;;19.28;90.27
23339;BME280;11841;49.368;20.962;2023-08-21T00:54:57;96386.56;;;19.26;90.55
23339;BME280;11841;49.368;20.962;2023-08-21T00:57:43;96384.69;;;19.27;90.92
23339;BME280;11841;49.368;20.962;2023-08-21T01:00:28;96385.50;;;19.27;91.24
23339;BME280;11841;49.368;20.962;2023-08-21T01:03:13;96385.25;;;19.29;91.06
23339;BME280;11841;49.368;20.962;2023-08-21T01:05:59;96381.50;;;19.30;91.28
23339;BME280;11841;49.368;20.962;2023-08-21T01:08:58;96385.59;;;19.33;91.22
23339;BME280;11841;49.368;20.962;2023-08-21T01:17:23;96386.28;;;19.28;91.93
23339;BME280;11841;49.368;20.962;2023-08-21T01:20:09;96386.56;;;19.26;92.25
23339;BME280;11841;49.368;20.962;2023-08-21T01:22:55;96384.69;;;19.27;92.59
23339;BME280;11841;49.368;20.962;2023-08-21T01:25:40;96382.00;;;19.27;93.43
23339;BME280;11841;49.368;20.962;2023-08-21T01:28:26;96386.06;;;19.30;93.42
23339;BME280;11841;49.368;20.962;2023-08-21T01:31:17;96379.88;;;19.29;93.27
23339;BME280;11841;49.368;20.962;2023-08-21T01:34:06;96381.75;;;19.28;93.59
23339;BME280;11841;49.368;20.962;2023-08-21T01:36:52;96376.13;;;19.30;94.36
23339;BME280;11841;49.368;20.962;2023-08-21T01:39:37;96382.91;;;19.33;94.67
23339;BME280;11841;49.368;20.962;2023-08-21T01:42:22;96385.59;;;19.33;95.43
23339;BME280;11841;49.368;20.962;2023-08-21T01:45:08;96389.31;;;19.32;95.77
23339;BME280;11841;49.368;20.962;2023-08-21T01:47:53;96388.81;;;19.35;95.50
23339;BME280;11841;49.368;20.962;2023-08-21T01:50:39;96398.50;;;19.36;95.40
23339;BME280;11841;49.368;20.962;2023-08-21T01:53:24;96394.19;;;19.35;95.36
23339;BME280;11841;49.368;20.962;2023-08-21T01:56:10;96396.38;;;19.38;95.63
23339;BME280;11841;49.368;20.962;2023-08-21T01:58:56;96399.59;;;19.40;95.87
23339;BME280;11841;49.368;20.962;2023-08-21T02:01:41;96403.69;;;19.42;95.94
23339;BME280;11841;49.368;20.962;2023-08-21T02:04:26;96402.06;;;19.41;95.82
23339;BME280;11841;49.368;20.962;2023-08-21T02:07:12;96408.22;;;19.42;96.02
23339;BME280;11841;49.368;20.962;2023-08-21T02:09:57;96403.69;;;19.42;96.24
23339;BME280;11841;49.368;20.962;2023-08-21T02:12:43;96406.09;;;19.44;96.42
23339;BME280;11841;49.368;20.962;2023-08-21T02:15:29;96398.59;;;19.46;96.61
23339;BME280;11841;49.368;20.962;2023-08-21T02:18:14;96397.53;;;19.47;96.67
23339;BME280;11841;49.368;20.962;2023-08-21T02:21:01;96399.94;;;19.48;96.49
23339;BME280;11841;49.368;20.962;2023-08-21T02:23:46;96402.41;;;19.50;96.68
23339;BME280;11841;49.368;20.962;2023-08-21T02:26:31;96405.09;;;19.50;96.67
23339;BME280;11841;49.368;20.962;2023-08-21T02:29:17;96401.06;;;19.52;96.92
23339;BME280;11841;49.368;20.962;2023-08-21T02:32:02;96406.19;;;19.54;96.99
23339;BME280;11841;49.368;20.962;2023-08-21T02:34:48;96399.75;;;19.55;97.62
23339;BME280;11841;49.368;20.962;2023-08-21T02:37:33;96408.88;;;19.54;98.32
23339;BME280;11841;49.368;20.962;2023-08-21T02:40:19;96403.81;;;19.57;98.22
23339;BME280;11841;49.368;20.962;2023-08-21T02:43:04;96397.34;;;19.58;97.80
23339;BME280;11841;49.368;20.962;2023-08-21T02:45:50;96404.38;;;19.59;97.79
23339;BME280;11841;49.368;20.962;2023-08-21T02:48:35;96400.84;;;19.59;98.02
23339;BME280;11841;49.368;20.962;2023-08-21T02:51:20;96400.34;;;19.62;98.49
23339;BME280;11841;49.368;20.962;2023-08-21T02:54:06;96392.81;;;19.64;99.10
23339;BME280;11841;49.368;20.962;2023-08-21T02:56:51;96391.78;;;19.65;99.82
23339;BME280;11841;49.368;20.962;2023-08-21T02:59:37;96385.03;;;19.62;100.00
23339;BME280;11841;49.368;20.962;2023-08-21T03:02:22;96387.44;;;19.64;99.98
23339;BME280;11841;49.368;20.962;2023-08-21T03:05:08;96384.25;;;19.67;99.76
23339;BME280;11841;49.368;20.962;2023-08-21T03:07:54;96386.44;;;19.70;99.17
23339;BME280;11841;49.368;20.962;2023-08-21T03:10:39;96388.06;;;19.71;99.12
23339;BME280;11841;49.368;20.962;2023-08-21T03:13:25;96391.00;;;19.69;99.72
23339;BME280;11841;49.368;20.962;2023-08-21T03:16:10;96396.69;;;19.73;99.77
23339;BME280;11841;49.368;20.962;2023-08-21T03:18:58;96390.22;;;19.74;99.89
23339;BME280;11841;49.368;20.962;2023-08-21T03:21:44;96388.34;;;19.74;99.55
23339;BME280;11841;49.368;20.962;2023-08-21T03:24:29;96391.84;;;19.75;99.34
23339;BME280;11841;49.368;20.962;2023-08-21T03:27:18;96390.78;;;19.76;99.16
23339;BME280;11841;49.368;20.962;2023-08-21T03:30:04;96388.91;;;19.76;99.20
23339;BME280;11841;49.368;20.962;2023-08-21T03:32:52;96395.91;;;19.77;98.99
23339;BME280;11841;49.368;20.962;2023-08-21T03:35:37;96386.47;;;19.75;99.06
23339;BME280;11841;49.368;20.962;2023-08-21T03:38:23;96388.91;;;19.76;99.12
23339;BME280;11841;49.368;20.962;2023-08-21T03:41:08;96388.34;;;19.74;99.44
23339;BME280;11841;49.368;20.962;2023-08-21T03:43:53;96386.47;;;19.75;99.61
23339;BME280;11841;49.368;20.962;2023-08-21T03:46:39;96396.16;;;19.76;99.87
23339;BME280;11841;49.368;20.962;2023-08-21T03:49:24;96400.50;;;19.77;100.00
23339;BME280;11841;49.368;20.962;2023-08-21T03:52:09;96390.47;;;19.72;100.00
23339;BME280;11841;49.368;20.962;2023-08-21T03:54:55;96387.53;;;19.74;99.96
23339;BME280;11841;49.368;20.962;2023-08-21T03:57:40;96390.22;;;19.74;100.00
23339;BME280;11841;49.368;20.962;2023-08-21T04:00:26;96393.38;;;19.66;100.00
23339;BME280;11841;49.368;20.962;2023-08-21T04:03:11;96393.94;;;19.68;100.00
23339;BME280;11841;49.368;20.962;2023-08-21T04:05:56;96393.44;;;19.71;100.00
23339;BME280;11841;49.368;20.962;2023-08-21T04:08:42;96396.69;;;19.73;99.99
23339;BME280;11841;49.368;20.962;2023-08-21T04:11:27;96392.13;;;19.73;99.58
23339;BME280;11841;49.368;20.962;2023-08-21T04:14:14;96389.16;;;19.75;99.50
23339;BME280;11841;49.368;20.962;2023-08-21T04:16:59;96391.31;;;19.73;99.60
23339;BME280;11841;49.368;20.962;2023-08-21T04:19:44;96395.06;;;19.72;99.67
23339;BME280;11841;49.368;20.962;2023-08-21T04:22:30;96390.47;;;19.72;99.53
23339;BME280;11841;49.368;20.962;2023-08-21T04:25:15;96392.13;;;19.73;99.33
23339;BME280;11841;49.368;20.962;2023-08-21T04:28:01;96392.91;;;19.74;98.83
23339;BME280;11841;49.368;20.962;2023-08-21T04:30:46;96389.44;;;19.73;98.97
23339;BME280;11841;49.368;20.962;2023-08-21T04:33:32;96389.97;;;19.75;98.71
23339;BME280;11841;49.368;20.962;2023-08-21T04:36:18;96392.13;;;19.73;98.72
23339;BME280;11841;49.368;20.962;2023-08-21T04:39:03;96397.50;;;19.73;98.63
23339;BME280;11841;49.368;20.962;2023-08-21T04:41:48;96400.94;;;19.69;99.11
23339;BME280;11841;49.368;20.962;2023-08-21T04:44:34;96400.59;;;19.60;99.72
23339;BME280;11841;49.368;20.962;2023-08-21T04:47:24;96410.00;;;19.58;100.00
23339;BME280;11841;49.368;20.962;2023-08-21T04:50:12;96402.50;;;19.60;100.00
23339;BME280;11841;49.368;20.962;2023-08-21T04:52:57;96400.13;;;19.63;99.89
23339;BME280;11841;49.368;20.962;2023-08-21T04:55:42;96398.22;;;19.64;99.56
23339;BME280;11841;49.368;20.962;2023-08-21T04:58:28;96389.09;;;19.65;99.70
23339;BME280;11841;49.368;20.962;2023-08-21T05:01:13;96391.78;;;19.65;100.00
23339;BME280;11841;49.368;20.962;2023-08-21T05:03:58;96395.25;;;19.65;100.00
23339;BME280;11841;49.368;20.962;2023-08-21T05:06:43;96390.69;;;19.66;100.00
23339;BME280;11841;49.368;20.962;2023-08-21T05:09:29;96400.91;;;19.64;100.00
23339;BME280;11841;49.368;20.962;2023-08-21T05:12:14;96400.25;;;19.52;100.00
23339;BME280;11841;49.368;20.962;2023-08-21T05:15:00;96411.22;;;19.45;100.00
23339;BME280;11841;49.368;20.962;2023-08-21T05:17:45;96410.97;;;19.47;100.00
23339;BME280;11841;49.368;20.962;2023-08-21T05:20:30;96415.09;;;19.54;100.00
23339;BME280;11841;49.368;20.962;2023-08-21T05:23:16;96401.38;;;19.56;100.00
23339;BME280;11841;49.368;20.962;2023-08-21T05:26:01;96394.44;;;19.60;100.00
23339;BME280;11841;49.368;20.962;2023-08-21T05:28:47;96393.88;;;19.58;100.00
23339;BME280;11841;49.368;20.962;2023-08-21T05:31:32;96394.44;;;19.60;100.00
23339;BME280;11841;49.368;20.962;2023-08-21T05:34:18;96384.19;;;19.62;100.00
23339;BME280;11841;49.368;20.962;2023-08-21T05:37:03;96403.94;;;19.41;100.00
23339;BME280;11841;49.368;20.962;2023-08-21T05:39:49;96402.63;;;19.48;100.00
23339;BME280;11841;49.368;20.962;2023-08-21T05:42:35;96404.03;;;19.51;100.00
23339;BME280;11841;49.368;20.962;2023-08-21T05:45:20;96410.72;;;19.48;100.00
23339;BME280;11841;49.368;20.962;2023-08-21T05:48:06;96408.22;;;19.42;100.00
23339;BME280;11841;49.368;20.962;2023-08-21T05:50:52;96407.22;;;19.48;100.00
23339;BME280;11841;49.368;20.962;2023-08-21T05:53:37;96411.22;;;19.45;100.00
23339;BME280;11841;49.368;20.962;2023-08-21T05:56:23;96425.44;;;19.41;100.00
23339;BME280;11841;49.368;20.962;2023-08-21T05:59:10;96423.00;;;19.39;100.00
23339;BME280;11841;49.368;20.962;2023-08-21T06:01:55;96416.59;;;19.45;100.00
23339;BME280;11841;49.368;20.962;2023-08-21T06:04:41;96412.09;;;19.51;100.00
23339;BME280;11841;49.368;20.962;2023-08-21T06:07:27;96412.13;;;19.56;100.00
23339;BME280;11841;49.368;20.962;2023-08-21T06:10:12;96408.38;;;19.57;100.00
23339;BME280;11841;49.368;20.962;2023-08-21T06:12:58;96391.44;;;19.56;100.00
23339;BME280;11841;49.368;20.962;2023-08-21T06:15:43;96399.75;;;19.55;100.00
23339;BME280;11841;49.368;20.962;2023-08-21T06:18:29;96408.97;;;19.64;100.00
23339;BME280;11841;49.368;20.962;2023-08-21T06:21:15;96407.44;;;19.73;100.00
23339;BME280;11841;49.368;20.962;2023-08-21T06:24:00;96400.19;;;19.73;100.00
23339;BME280;11841;49.368;20.962;2023-08-21T06:26:46;96402.34;;;19.76;100.00
23339;BME280;11841;49.368;20.962;2023-08-21T06:29:31;96403.75;;;19.84;100.00
23339;BME280;11841;49.368;20.962;2023-08-21T06:32:16;96398.44;;;19.94;100.00
23339;BME280;11841;49.368;20.962;2023-08-21T06:35:05;96395.25;;;19.97;100.00
23339;BME280;11841;49.368;20.962;2023-08-21T06:37:50;96394.97;;;19.93;100.00
23339;BME280;11841;49.368;20.962;2023-08-21T06:40:35;96394.22;;;20.08;100.00
23339;BME280;11841;49.368;20.962;2023-08-21T06:43:20;96395.41;;;20.17;100.00
23339;BME280;11841;49.368;20.962;2023-08-21T06:46:07;96393.31;;;20.24;100.00
23339;BME280;11841;49.368;20.962;2023-08-21T06:48:52;96392.81;;;20.32;100.00
23339;BME280;11841;49.368;20.962;2023-08-21T06:51:38;96390.69;;;20.39;100.00
23339;BME280;11841;49.368;20.962;2023-08-21T06:54:23;96394.50;;;20.48;100.00
23339;BME280;11841;49.368;20.962;2023-08-21T06:57:09;96402.09;;;20.56;100.00
23339;BME280;11841;49.368;20.962;2023-08-21T06:59:54;96388.09;;;20.64;100.00
23339;BME280;11841;49.368;20.962;2023-08-21T07:02:39;96384.91;;;20.72;100.00
23339;BME280;11841;49.368;20.962;2023-08-21T07:05:25;96387.09;;;20.80;100.00
23339;BME280;11841;49.368;20.962;2023-08-21T07:08:10;96394.69;;;20.88;100.00
23339;BME280;11841;49.368;20.962;2023-08-21T07:21:16;96387.31;;;21.86;100.00
23339;BME280;11841;49.368;20.962;2023-08-21T07:24:17;96393.50;;;21.91;100.00
23339;BME280;11841;49.368;20.962;2023-08-21T07:27:03;96392.97;;;21.94;100.00
23339;BME280;11841;49.368;20.962;2023-08-21T07:29:48;96390.81;;;22.01;100.00
23339;BME280;11841;49.368;20.962;2023-08-21T07:32:33;96391.63;;;22.07;100.00
23339;BME280;11841;49.368;20.962;2023-08-21T07:35:19;96402.94;;;22.14;100.00
23339;BME280;11841;49.368;20.962;2023-08-21T07:38:05;96398.34;;;22.24;100.00
23339;BME280;11841;49.368;20.962;2023-08-21T07:40:51;96398.31;;;22.34;100.00
23339;BME280;11841;49.368;20.962;2023-08-21T07:43:37;96411.53;;;22.41;99.74
23339;BME280;11841;49.368;20.962;2023-08-21T07:46:22;96410.97;;;22.49;99.65
23339;BME280;11841;49.368;20.962;2023-08-21T07:49:09;96402.88;;;22.54;100.00
23339;BME280;11841;49.368;20.962;2023-08-21T07:51:54;96402.84;;;22.64;99.71
23339;BME280;11841;49.368;20.962;2023-08-21T07:54:39;96409.31;;;22.73;98.83
23339;BME280;11841;49.368;20.962;2023-08-21T07:57:25;96407.09;;;22.85;98.26
23339;BME280;11841;49.368;20.962;2023-08-21T08:00:11;96405.16;;;22.96;98.96
23339;BME280;11841;49.368;20.962;2023-08-21T08:02:57;96399.44;;;23.07;98.14
23339;BME280;11841;49.368;20.962;2023-08-21T08:05:42;96404.78;;;23.17;98.94
23339;BME280;11841;49.368;20.962;2023-08-21T08:08:38;96395.53;;;23.23;99.67
23339;BME280;11841;49.368;20.962;2023-08-21T08:11:25;96394.47;;;23.29;99.89
23339;BME280;11841;49.368;20.962;2023-08-21T08:14:10;96394.66;;;23.43;100.00
23339;BME280;11841;49.368;20.962;2023-08-21T08:16:55;96399.16;;;23.52;100.00
23339;BME280;11841;49.368;20.962;2023-08-21T08:19:40;96396.63;;;23.66;97.41
23339;BME280;11841;49.368;20.962;2023-08-21T08:22:26;96400.09;;;23.76;97.64
23339;BME280;11841;49.368;20.962;2023-08-21T08:25:11;96397.53;;;23.90;95.96
23339;BME280;11841;49.368;20.962;2023-08-21T08:27:57;96405.22;;;24.12;96.30
23339;BME280;11841;49.368;20.962;2023-08-21T08:30:42;96406.22;;;24.21;95.22
23339;BME280;11841;49.368;20.962;2023-08-21T08:33:28;96397.94;;;24.36;92.24
23339;BME280;11841;49.368;20.962;2023-08-21T08:36:13;96403.09;;;24.61;89.24
23339;BME280;11841;49.368;20.962;2023-08-21T08:38:59;96398.91;;;24.73;87.99
23339;BME280;11841;49.368;20.962;2023-08-21T08:41:56;96393.38;;;24.83;85.76
23339;BME280;11841;49.368;20.962;2023-08-21T08:44:43;96393.00;;;24.90;89.87
23339;BME280;11841;49.368;20.962;2023-08-21T08:47:31;96391.88;;;24.96;90.79
23339;BME280;11841;49.368;20.962;2023-08-21T08:50:17;96387.09;;;25.06;86.82
23339;BME280;11841;49.368;20.962;2023-08-21T08:53:04;96387.78;;;25.17;86.59
23339;BME280;11841;49.368;20.962;2023-08-21T08:56:01;96386.03;;;25.26;86.07
23339;BME280;11841;49.368;20.962;2023-08-21T08:58:46;96375.41;;;25.48;82.20
23339;BME280;11841;49.368;20.962;2023-08-21T09:01:32;96380.16;;;25.56;83.39
23339;BME280;11841;49.368;20.962;2023-08-21T09:04:17;96383.03;;;25.65;84.96
23339;BME280;11841;49.368;20.962;2023-08-21T09:07:10;96383.16;;;25.73;82.56
23339;BME280;11841;49.368;20.962;2023-08-21T09:09:55;96371.44;;;25.91;79.30
23339;BME280;11841;49.368;20.962;2023-08-21T09:12:40;96377.25;;;26.03;75.43
23339;BME280;11841;49.368;20.962;2023-08-21T09:15:28;96378.63;;;26.19;73.34
23339;BME280;11841;49.368;20.962;2023-08-21T09:18:25;96375.28;;;26.23;76.10
23339;BME280;11841;49.368;20.962;2023-08-21T09:21:11;96372.78;;;26.26;76.91
23339;BME280;11841;49.368;20.962;2023-08-21T09:24:01;96363.13;;;26.34;80.33
23339;BME280;11841;49.368;20.962;2023-08-21T09:26:48;96371.00;;;26.49;78.06
23339;BME280;11841;49.368;20.962;2023-08-21T09:29:40;96368.59;;;26.61;75.13
23339;BME280;11841;49.368;20.962;2023-08-21T09:32:26;96373.66;;;26.81;71.99
23339;BME280;11841;49.368;20.962;2023-08-21T09:35:14;96368.09;;;26.99;69.89
23339;BME280;11841;49.368;20.962;2023-08-21T09:38:00;96371.81;;;27.03;70.24
23339;BME280;11841;49.368;20.962;2023-08-21T09:40:53;96369.16;;;27.12;66.93
23339;BME280;11841;49.368;20.962;2023-08-21T09:43:42;96368.94;;;27.22;65.91
23339;BME280;11841;49.368;20.962;2023-08-21T09:46:28;96361.09;;;27.34;63.25
23339;BME280;11841;49.368;20.962;2023-08-21T09:49:14;96358.25;;;27.39;63.21
23339;BME280;11841;49.368;20.962;2023-08-21T09:52:01;96360.84;;;27.44;61.73
23339;BME280;11841;49.368;20.962;2023-08-21T09:54:46;96358.00;;;27.49;62.54
23339;BME280;11841;49.368;20.962;2023-08-21T09:57:32;96352.28;;;27.51;61.61
23339;BME280;11841;49.368;20.962;2023-08-21T10:00:18;96353.94;;;27.60;61.82
23339;BME280;11841;49.368;20.962;2023-08-21T10:03:07;96353.50;;;27.67;60.97
23339;BME280;11841;49.368;20.962;2023-08-21T10:05:57;96357.44;;;27.74;62.46
23339;BME280;11841;49.368;20.962;2023-08-21T10:08:44;96352.94;;;27.78;60.97
23339;BME280;11841;49.368;20.962;2023-08-21T10:11:30;96354.88;;;27.78;58.44
23339;BME280;11841;49.368;20.962;2023-08-21T10:14:16;96357.31;;;27.79;59.23
23339;BME280;11841;49.368;20.962;2023-08-21T10:17:01;96362.44;;;27.81;59.50
23339;BME280;11841;49.368;20.962;2023-08-21T10:19:51;96356.03;;;27.85;58.60
23339;BME280;11841;49.368;20.962;2023-08-21T10:22:45;96355.50;;;27.97;58.88
23339;BME280;11841;49.368;20.962;2023-08-21T10:25:30;96356.19;;;28.02;59.64
23339;BME280;11841;49.368;20.962;2023-08-21T10:28:17;96356.06;;;28.07;56.84
23339;BME280;11841;49.368;20.962;2023-08-21T10:31:35;96349.06;;;28.15;57.54
23339;BME280;11841;49.368;20.962;2023-08-21T10:34:20;96337.06;;;28.24;57.92
23339;BME280;11841;49.368;20.962;2023-08-21T10:37:08;96345.94;;;28.30;57.10
23339;BME280;11841;49.368;20.962;2023-08-21T10:39:56;96345.13;;;28.29;57.11
23339;BME280;11841;49.368;20.962;2023-08-21T10:42:42;96355.38;;;28.32;58.66
23339;BME280;11841;49.368;20.962;2023-08-21T10:45:29;96348.06;;;28.41;57.94
23339;BME280;11841;49.368;20.962;2023-08-21T10:48:14;96345.19;;;28.46;59.97
23339;BME280;11841;49.368;20.962;2023-08-21T10:51:05;96347.50;;;28.53;58.62
23339;BME280;11841;49.368;20.962;2023-08-21T10:53:50;96345.13;;;28.60;58.81
23339;BME280;11841;49.368;20.962;2023-08-21T10:56:36;96340.66;;;28.64;58.47
23339;BME280;11841;49.368;20.962;2023-08-21T10:59:21;96346.59;;;28.66;58.24
23339;BME280;11841;49.368;20.962;2023-08-21T11:02:07;96349.16;;;28.63;58.84
23339;BME280;11841;49.368;20.962;2023-08-21T11:04:53;96338.72;;;28.65;57.67
23339;BME280;11841;49.368;20.962;2023-08-21T11:07:41;96346.47;;;28.71;58.21
23339;BME280;11841;49.368;20.962;2023-08-21T11:10:30;96339.91;;;28.81;58.46
23339;BME280;11841;49.368;20.962;2023-08-21T11:13:16;96338.78;;;28.90;57.81
23339;BME280;11841;49.368;20.962;2023-08-21T11:16:04;96344.59;;;28.97;56.61
23339;BME280;11841;49.368;20.962;2023-08-21T11:18:49;96346.22;;;28.98;57.81
23339;BME280;11841;49.368;20.962;2023-08-21T11:21:35;96333.84;;;29.01;54.93
23339;BME280;11841;49.368;20.962;2023-08-21T11:24:20;96346.38;;;29.02;54.97
23339;BME280;11841;49.368;20.962;2023-08-21T11:27:11;96345.06;;;28.99;55.69
23339;BME280;11841;49.368;20.962;2023-08-21T11:29:57;96335.13;;;28.95;56.08
23339;BME280;11841;49.368;20.962;2023-08-21T11:32:43;96337.53;;;28.96;55.87
23339;BME280;11841;49.368;20.962;2023-08-21T11:35:28;96336.75;;;29.04;55.56
23339;BME280;11841;49.368;20.962;2023-08-21T11:38:18;96344.00;;;29.09;55.54
23339;BME280;11841;49.368;20.962;2023-08-21T11:41:05;96348.34;;;29.10;55.01
23339;BME280;11841;49.368;20.962;2023-08-21T11:43:51;96337.06;;;29.03;55.35
23339;BME280;11841;49.368;20.962;2023-08-21T11:46:37;96349.41;;;29.00;55.55
23339;BME280;11841;49.368;20.962;2023-08-21T11:49:22;96348.28;;;28.93;55.34
23339;BME280;11841;49.368;20.962;2023-08-21T11:52:12;96347.28;;;28.89;56.31
23339;BME280;11841;49.368;20.962;2023-08-21T11:54:57;96339.44;;;28.87;56.14
23339;BME280;11841;49.368;20.962;2023-08-21T11:57:48;96345.34;;;28.81;56.65
23339;BME280;11841;49.368;20.962;2023-08-21T12:00:33;96346.00;;;28.78;57.03
23339;BME280;11841;49.368;20.962;2023-08-21T12:03:18;96343.88;;;28.75;58.30
23339;BME280;11841;49.368;20.962;2023-08-21T12:06:09;96339.06;;;28.72;59.05
23339;BME280;11841;49.368;20.962;2023-08-21T12:08:54;96329.28;;;28.71;59.12
23339;BME280;11841;49.368;20.962;2023-08-21T12:11:40;96329.28;;;28.71;60.04
23339;BME280;11841;49.368;20.962;2023-08-21T12:14:27;96337.50;;;28.79;59.52
23339;BME280;11841;49.368;20.962;2023-08-21T12:17:12;96330.56;;;28.82;59.67
23339;BME280;11841;49.368;20.962;2023-08-21T12:19:58;96334.28;;;28.86;60.70
23339;BME280;11841;49.368;20.962;2023-08-21T12:22:46;96341.19;;;28.92;59.67
23339;BME280;11841;49.368;20.962;2023-08-21T12:25:31;96342.81;;;28.93;60.01
23339;BME280;11841;49.368;20.962;2023-08-21T12:28:17;96336.72;;;28.96;59.47
23339;BME280;11841;49.368;20.962;2023-08-21T12:31:02;96334.13;;;28.91;58.75
23339;BME280;11841;49.368;20.962;2023-08-21T12:33:48;96341.16;;;28.83;59.86
23339;BME280;11841;49.368;20.962;2023-08-21T12:36:37;96336.31;;;28.72;61.15
23339;BME280;11841;49.368;20.962;2023-08-21T12:39:22;96336.31;;;28.72;61.67
23339;BME280;11841;49.368;20.962;2023-08-21T12:42:07;96334.09;;;28.74;61.43
23339;BME280;11841;49.368;20.962;2023-08-21T12:44:55;96334.09;;;28.74;62.20
23339;BME280;11841;49.368;20.962;2023-08-21T12:47:40;96337.63;;;28.74;61.97
23339;BME280;11841;49.368;20.962;2023-08-21T12:50:26;96329.78;;;28.81;60.67
23339;BME280;11841;49.368;20.962;2023-08-21T12:53:11;96329.31;;;28.88;60.69
23339;BME280;11841;49.368;20.962;2023-08-21T12:55:57;96326.44;;;28.93;61.03
23339;BME280;11841;49.368;20.962;2023-08-21T12:58:42;96326.94;;;29.03;61.42
23339;BME280;11841;49.368;20.962;2023-08-21T13:01:28;96325.69;;;29.09;59.92
23339;BME280;11841;49.368;20.962;2023-08-21T13:04:14;96329.72;;;29.12;60.31
23339;BME280;11841;49.368;20.962;2023-08-21T13:07:00;96321.03;;;29.10;60.52
23339;BME280;11841;49.368;20.962;2023-08-21T13:09:46;96326.50;;;29.10;60.01
23339;BME280;11841;49.368;20.962;2023-08-21T13:12:31;96318.81;;;29.12;60.30
23339;BME280;11841;49.368;20.962;2023-08-21T13:15:16;96317.78;;;29.08;60.62
23339;BME280;11841;49.368;20.962;2023-08-21T13:18:02;96313.50;;;29.15;61.84
23339;BME280;11841;49.368;20.962;2023-08-21T13:20:47;96311.41;;;29.21;61.86
23339;BME280;11841;49.368;20.962;2023-08-21T13:23:32;96302.28;;;29.25;62.68
23339;BME280;11841;49.368;20.962;2023-08-21T13:26:19;96300.16;;;29.31;63.45
23339;BME280;11841;49.368;20.962;2023-08-21T13:29:05;96296.31;;;29.32;62.02
23339;BME280;11841;49.368;20.962;2023-08-21T13:31:52;96292.78;;;29.31;61.11
23339;BME280;11841;49.368;20.962;2023-08-21T13:34:38;96296.00;;;29.25;60.63
23339;BME280;11841;49.368;20.962;2023-08-21T13:37:23;96290.84;;;29.23;59.73
23339;BME280;11841;49.368;20.962;2023-08-21T13:40:12;96291.50;;;29.29;60.61
23339;BME280;11841;49.368;20.962;2023-08-21T13:42:59;96293.75;;;29.27;59.45
23339;BME280;11841;49.368;20.962;2023-08-21T13:45:46;96286.34;;;29.27;59.95
23339;BME280;11841;49.368;20.962;2023-08-21T13:48:33;96290.06;;;29.31;60.39
23339;BME280;11841;49.368;20.962;2023-08-21T13:51:19;96290.38;;;29.38;61.34
23339;BME280;11841;49.368;20.962;2023-08-21T13:54:07;96290.22;;;29.35;61.00
23339;BME280;11841;49.368;20.962;2023-08-21T13:56:52;96289.06;;;29.27;61.92
23339;BME280;11841;49.368;20.962;2023-08-21T13:59:38;96286.66;;;29.26;61.68
23339;BME280;11841;49.368;20.962;2023-08-21T14:02:23;96289.72;;;29.24;61.85
23339;BME280;11841;49.368;20.962;2023-08-21T14:05:09;96280.25;;;29.22;62.39
23339;BME280;11841;49.368;20.962;2023-08-21T14:07:56;96269.97;;;29.19;62.76
23339;BME280;11841;49.368;20.962;2023-08-21T14:10:42;96267.56;;;29.26;63.04
23339;BME280;11841;49.368;20.962;2023-08-21T14:13:27;96270.59;;;29.33;62.12
23339;BME280;11841;49.368;20.962;2023-08-21T14:16:13;96265.78;;;29.13;62.77
23339;BME280;11841;49.368;20.962;2023-08-21T14:18:58;96264.16;;;29.37;61.83
23339;BME280;11841;49.368;20.962;2023-08-21T14:21:44;96272.22;;;29.51;61.98
23339;BME280;11841;49.368;20.962;2023-08-21T14:24:29;96262.06;;;29.60;60.86
23339;BME280;11841;49.368;20.962;2023-08-21T14:27:15;96258.25;;;29.70;60.41
23339;BME280;11841;49.368;20.962;2023-08-21T14:30:00;96249.56;;;29.68;59.40
23339;BME280;11841;49.368;20.962;2023-08-21T14:32:45;96246.63;;;29.64;60.06
23339;BME280;11841;49.368;20.962;2023-08-21T14:35:31;96250.16;;;29.73;60.02
23339;BME280;11841;49.368;20.962;2023-08-21T14:38:16;96245.00;;;29.80;59.53
23339;BME280;11841;49.368;20.962;2023-08-21T14:41:02;96249.66;;;29.88;58.92
23339;BME280;11841;49.368;20.962;2023-08-21T14:43:48;96229.91;;;29.83;58.16